Time;durP1;ratioP1;P1;durP2;ratioP2;P2;SDS_P1;SDS_P2;PMS_P1;PMS_P2;Temp;Humidity;BMP_temperature;BMP_pressure;BME280_temperature;BME280_humidity;BME280_pressure;Samples;Min_cycle;Max_cycle;Signal;HPM_P1;HPM_P2
2023/04/14 00:01:27;;;;;;;9.80;6.57;;;4.30;99.90;;;;;;5015737;28;20663;-77
2023/04/14 00:03:53;;;;;;;8.67;6.33;;;4.30;99.90;;;;;;4997736;28;20215;-77
2023/04/14 00:06:19;;;;;;;8.80;6.70;;;4.30;99.90;;;;;;5015288;28;20254;-77
2023/04/14 00:08:44;;;;;;;12.83;6.93;;;4.10;99.90;;;;;;4997981;28;20537;-77
2023/04/14 00:11:10;;;;;;;11.13;7.17;;;4.10;99.90;;;;;;5015583;28;20184;-77
2023/04/14 00:13:36;;;;;;;10.23;6.57;;;4.10;99.90;;;;;;4997523;28;20346;-78
2023/04/14 00:16:02;;;;;;;11.17;7.33;;;4.20;99.90;;;;;;5015547;28;20168;-78
2023/04/14 00:18:28;;;;;;;12.57;7.73;;;4.20;99.90;;;;;;4997798;28;20203;-78
2023/04/14 00:20:53;;;;;;;11.27;7.47;;;4.20;99.90;;;;;;4998161;28;20235;-77
2023/04/14 00:23:19;;;;;;;10.77;7.63;;;4.00;99.90;;;;;;5014820;28;20199;-78
2023/04/14 00:25:46;;;;;;;12.83;8.07;;;3.80;99.90;;;;;;5016177;28;20180;-78
2023/04/14 00:28:11;;;;;;;13.67;7.90;;;3.90;99.90;;;;;;5016617;28;20176;-79
2023/04/14 00:30:37;;;;;;;14.30;7.77;;;3.90;99.90;;;;;;5016817;28;20191;-79
2023/04/14 00:33:03;;;;;;;9.50;6.83;;;3.70;99.90;;;;;;5034691;28;20538;-79
2023/04/14 00:35:30;;;;;;;13.20;7.70;;;3.50;99.90;;;;;;5005216;28;20192;-79
2023/04/14 00:37:57;;;;;;;10.03;7.50;;;3.40;99.90;;;;;;4998224;28;20219;-78
2023/04/14 00:40:23;;;;;;;13.03;7.23;;;3.40;99.90;;;;;;4998281;28;20309;-78
2023/04/14 00:42:49;;;;;;;10.03;7.33;;;3.30;99.90;;;;;;5015456;28;20234;-78
2023/04/14 00:45:15;;;;;;;10.53;7.30;;;3.30;99.90;;;;;;5014862;28;20210;-79
2023/04/14 00:47:46;;;;;;;12.13;7.00;;;3.40;99.90;;;;;;5015813;28;20183;-79
2023/04/14 00:50:13;;;;;;;11.43;7.80;;;3.50;99.90;;;;;;5016568;28;20239;-79
2023/04/14 00:52:42;;;;;;;11.03;7.50;;;3.60;99.90;;;;;;4997877;28;20183;-79
2023/04/14 00:55:08;;;;;;;10.37;7.57;;;3.70;99.90;;;;;;5016170;28;20588;-79
2023/04/14 00:57:35;;;;;;;13.93;8.10;;;3.80;99.90;;;;;;5015076;28;20204;-78
2023/04/14 01:00:04;;;;;;;8.37;7.47;;;3.50;99.90;;;;;;5014633;28;20168;-78
2023/04/14 01:02:30;;;;;;;14.93;7.30;;;3.50;99.90;;;;;;5015074;28;20204;-78
2023/04/14 01:04:57;;;;;;;13.23;7.40;;;3.40;99.90;;;;;;5015505;28;20211;-78
2023/04/14 01:07:25;;;;;;;9.43;6.80;;;3.30;99.90;;;;;;4999251;28;20267;-79
2023/04/14 01:09:54;;;;;;;8.53;6.60;;;3.20;99.90;;;;;;4999131;28;20190;-79
2023/04/14 01:12:38;;;;;;;8.87;6.83;;;3.20;99.90;;;;;;5015768;28;20178;-79
2023/04/14 01:15:16;;;;;;;10.33;6.93;;;3.10;99.90;;;;;;5016698;28;20215;-80
2023/04/14 01:17:56;;;;;;;11.97;7.33;;;3.10;99.90;;;;;;5016670;28;20192;-80
2023/04/14 01:20:34;;;;;;;12.43;7.47;;;3.10;99.90;;;;;;5017045;28;20152;-80
2023/04/14 01:23:20;;;;;;;9.43;7.20;;;3.00;99.90;;;;;;5016697;28;20588;-80
2023/04/14 01:25:51;;;;;;;12.53;7.53;;;2.90;99.90;;;;;;5015354;28;20160;-78
2023/04/14 01:28:36;;;;;;;12.60;7.60;;;2.90;99.90;;;;;;5014527;28;20168;-78
2023/04/14 01:31:23;;;;;;;10.40;7.10;;;2.80;99.90;;;;;;4996642;28;20176;-78
2023/04/14 01:34:09;;;;;;;11.17;7.87;;;2.80;99.90;;;;;;4998111;28;20258;-78
2023/04/14 01:36:55;;;;;;;16.63;7.77;;;2.90;99.90;;;;;;5018898;28;20171;-78
2023/04/14 01:39:25;;;;;;;10.20;7.73;;;3.00;99.90;;;;;;5002757;28;20223;-78
2023/04/14 01:41:55;;;;;;;11.80;7.90;;;3.10;99.90;;;;;;5001547;28;20172;-79
2023/04/14 01:44:22;;;;;;;11.67;8.20;;;3.20;99.90;;;;;;5001991;28;20196;-79
2023/04/14 01:46:51;;;;;;;13.53;7.57;;;3.20;99.90;;;;;;5001098;28;20266;-79
2023/04/14 01:49:20;;;;;;;12.77;7.90;;;3.30;99.90;;;;;;5018805;28;20168;-79
2023/04/14 01:51:48;;;;;;;13.93;7.67;;;3.30;99.90;;;;;;5018392;28;20660;-79
2023/04/14 01:54:16;;;;;;;8.10;7.30;;;3.40;99.90;;;;;;5000090;28;20203;-79
2023/04/14 01:56:44;;;;;;;11.40;7.40;;;3.50;99.90;;;;;;5018357;28;20322;-79
2023/04/14 01:59:11;;;;;;;9.33;7.63;;;3.50;99.90;;;;;;5000742;28;20215;-78
2023/04/14 02:01:39;;;;;;;9.23;7.30;;;3.50;99.90;;;;;;5017879;28;20222;-77
2023/04/14 02:04:07;;;;;;;10.47;8.07;;;3.60;99.90;;;;;;4999630;28;20220;-78
2023/04/14 02:06:35;;;;;;;8.20;7.07;;;3.70;99.90;;;;;;5017333;28;20171;-77
2023/04/14 02:09:03;;;;;;;9.93;7.67;;;3.80;99.90;;;;;;5017088;28;20187;-77
2023/04/14 02:11:30;;;;;;;9.27;7.00;;;3.80;99.90;;;;;;5017094;28;20178;-77
2023/04/14 02:13:56;;;;;;;9.33;7.23;;;3.70;99.90;;;;;;5000052;28;20246;-79
2023/04/14 02:16:23;;;;;;;11.77;7.53;;;3.70;99.90;;;;;;5001402;28;20184;-79
2023/04/14 02:18:50;;;;;;;13.37;7.37;;;3.70;99.90;;;;;;5001499;28;20204;-79
2023/04/14 02:21:17;;;;;;;10.83;7.17;;;3.60;99.90;;;;;;5001043;28;20176;-79
2023/04/14 02:23:43;;;;;;;9.90;7.50;;;3.60;99.90;;;;;;5019559;28;20223;-80
2023/04/14 02:26:21;;;;;;;10.67;8.03;;;3.60;99.90;;;;;;5002347;28;20175;-80
2023/04/14 02:28:55;;;;;;;9.13;8.23;;;3.60;99.90;;;;;;5019238;28;20162;-80
2023/04/14 02:31:24;;;;;;;9.40;7.87;;;3.60;99.90;;;;;;5019294;28;20576;-79
2023/04/14 02:33:54;;;;;;;11.60;8.73;;;3.60;99.90;;;;;;5019191;28;20210;-80
2023/04/14 02:36:33;;;;;;;12.47;8.30;;;3.70;99.90;;;;;;5001624;28;20172;-79
2023/04/14 02:39:05;;;;;;;10.27;7.43;;;3.70;99.90;;;;;;5018570;28;20246;-79
2023/04/14 02:41:32;;;;;;;11.67;7.80;;;3.70;99.90;;;;;;5019271;28;20152;-79
2023/04/14 02:44:26;;;;;;;11.43;7.90;;;3.70;99.90;;;;;;5001190;28;20612;-79
2023/04/14 02:47:02;;;;;;;10.17;7.70;;;3.70;99.90;;;;;;4998718;28;20190;-79
2023/04/14 02:49:34;;;;;;;9.23;7.47;;;3.70;99.90;;;;;;5001299;28;20675;-79
2023/04/14 02:52:02;;;;;;;10.13;7.70;;;3.70;99.90;;;;;;5000696;28;20168;-79
2023/04/14 02:54:29;;;;;;;9.80;7.77;;;3.80;99.90;;;;;;5001150;28;20241;-80
2023/04/14 02:56:56;;;;;;;11.10;7.93;;;3.80;99.90;;;;;;5019173;28;20176;-80
2023/04/14 02:59:22;;;;;;;16.07;8.37;;;3.80;99.90;;;;;;5022238;28;20207;-80
2023/04/14 03:01:49;;;;;;;13.97;8.10;;;3.70;99.90;;;;;;5020563;28;20193;-81
2023/04/14 03:04:17;;;;;;;12.63;8.00;;;3.70;99.90;;;;;;5019977;28;20188;-81
2023/04/14 03:06:44;;;;;;;12.77;7.93;;;3.70;99.90;;;;;;5001969;28;20176;-81
2023/04/14 03:09:10;;;;;;;10.70;7.73;;;3.70;99.90;;;;;;5019484;28;20172;-81
2023/04/14 03:11:37;;;;;;;12.50;7.97;;;3.70;99.90;;;;;;5018999;28;20183;-81
2023/04/14 03:14:04;;;;;;;16.83;8.67;;;3.60;99.90;;;;;;5019456;28;20226;-81
2023/04/14 03:16:31;;;;;;;10.60;7.70;;;3.50;99.90;;;;;;5020415;28;20183;-81
2023/04/14 03:18:58;;;;;;;8.57;7.63;;;3.40;99.90;;;;;;5000795;28;20203;-80
2023/04/14 03:21:25;;;;;;;10.03;7.47;;;3.40;99.90;;;;;;5017885;28;20234;-81
2023/04/14 03:23:52;;;;;;;12.53;8.27;;;3.30;99.90;;;;;;5018228;28;20187;-81
2023/04/14 03:26:20;;;;;;;11.83;7.50;;;3.40;99.90;;;;;;5000652;28;20227;-81
2023/04/14 03:28:47;;;;;;;14.63;8.67;;;3.50;99.90;;;;;;5001112;28;20180;-81
2023/04/14 03:31:17;;;;;;;17.00;8.80;;;3.50;99.90;;;;;;5000627;28;20191;-80
2023/04/14 03:33:45;;;;;;;15.40;8.53;;;3.50;99.90;;;;;;4999430;28;20727;-79
2023/04/14 03:36:14;;;;;;;10.13;8.33;;;3.40;99.90;;;;;;5016945;28;20171;-79
2023/04/14 03:38:41;;;;;;;13.73;8.47;;;3.30;99.90;;;;;;5017019;28;20184;-79
2023/04/14 03:41:08;;;;;;;13.53;8.80;;;3.40;99.90;;;;;;5000890;28;20172;-82
2023/04/14 03:43:35;;;;;;;17.43;8.33;;;3.40;99.90;;;;;;5000536;28;20228;-79
2023/04/14 03:46:04;;;;;;;14.23;8.37;;;3.40;99.90;;;;;;4998211;28;20242;-78
2023/04/14 03:48:35;;;;;;;13.07;8.20;;;3.40;99.90;;;;;;4998579;28;20172;-78
2023/04/14 03:51:04;;;;;;;11.73;8.27;;;3.40;99.90;;;;;;4999439;28;20184;-78
2023/04/14 03:53:33;;;;;;;14.87;9.40;;;3.40;99.90;;;;;;5018180;28;20223;-78
2023/04/14 03:56:00;;;;;;;16.27;8.23;;;3.40;99.90;;;;;;4998474;28;20278;-78
2023/04/14 03:58:29;;;;;;;12.03;8.60;;;3.40;99.90;;;;;;5016126;28;20238;-77
2023/04/14 04:00:55;;;;;;;11.17;8.40;;;3.40;99.90;;;;;;5016001;28;20640;-77
2023/04/14 04:03:22;;;;;;;15.57;9.10;;;3.30;99.90;;;;;;5000540;28;20546;-77
2023/04/14 04:05:49;;;;;;;10.87;8.23;;;3.10;99.90;;;;;;5015920;28;20187;-77
2023/04/14 04:08:17;;;;;;;13.87;8.40;;;3.10;99.90;;;;;;5014731;28;20183;-76
2023/04/14 04:10:43;;;;;;;18.00;8.63;;;3.00;99.90;;;;;;5014775;28;20176;-77
2023/04/14 04:13:14;;;;;;;16.03;8.97;;;3.10;99.90;;;;;;4996977;28;20656;-77
2023/04/14 04:15:41;;;;;;;10.20;8.50;;;3.00;99.90;;;;;;4997480;28;20175;-77
2023/04/14 04:18:07;;;;;;;14.90;9.07;;;3.10;99.90;;;;;;5014705;28;20203;-77
2023/04/14 04:20:37;;;;;;;11.27;9.33;;;3.10;99.90;;;;;;5014661;28;20180;-77
2023/04/14 04:23:04;;;;;;;11.73;8.53;;;3.10;99.90;;;;;;5014850;28;20346;-77
2023/04/14 04:25:31;;;;;;;14.03;8.30;;;3.10;99.90;;;;;;5014224;28;20179;-77
2023/04/14 04:27:59;;;;;;;21.87;8.93;;;3.10;99.90;;;;;;5014974;28;20176;-77
2023/04/14 04:30:28;;;;;;;11.40;7.90;;;3.10;99.90;;;;;;5015153;28;20180;-79
2023/04/14 04:32:53;;;;;;;13.63;8.33;;;3.00;99.90;;;;;;4998038;28;20254;-79
2023/04/14 04:35:21;;;;;;;11.40;8.40;;;2.80;99.90;;;;;;4998051;28;20708;-78
2023/04/14 04:37:48;;;;;;;13.77;8.57;;;2.70;99.90;;;;;;4997944;28;20290;-79
2023/04/14 04:40:14;;;;;;;13.87;8.10;;;2.60;99.90;;;;;;5016352;28;20223;-79
2023/04/14 04:42:41;;;;;;;11.77;8.87;;;2.70;99.90;;;;;;4998527;28;20175;-79
2023/04/14 04:45:07;;;;;;;12.40;8.40;;;2.70;99.90;;;;;;4998978;28;20203;-79
2023/04/14 04:47:33;;;;;;;11.90;8.47;;;2.80;99.90;;;;;;4999176;28;20270;-79
2023/04/14 04:49:58;;;;;;;15.33;8.73;;;2.90;99.90;;;;;;4997987;28;20218;-79
2023/04/14 04:52:24;;;;;;;11.20;8.57;;;2.90;99.90;;;;;;5016118;28;20207;-79
2023/04/14 04:54:51;;;;;;;14.47;8.73;;;2.80;99.90;;;;;;4998446;28;20196;-79
2023/04/14 04:57:18;;;;;;;12.30;8.80;;;2.60;99.90;;;;;;4997357;28;20272;-79
2023/04/14 04:59:43;;;;;;;18.40;9.17;;;2.70;99.90;;;;;;4996885;28;20685;-79
2023/04/14 05:02:09;;;;;;;10.07;8.60;;;2.80;99.90;;;;;;4996688;28;20191;-79
2023/04/14 05:04:35;;;;;;;14.67;9.53;;;2.70;99.90;;;;;;4996994;28;20204;-79
2023/04/14 05:07:02;;;;;;;15.57;9.10;;;2.60;99.90;;;;;;4996934;28;20195;-78
2023/04/14 05:09:28;;;;;;;14.57;8.63;;;2.60;99.90;;;;;;4999272;28;20184;-79
2023/04/14 05:11:54;;;;;;;13.77;8.63;;;2.60;99.90;;;;;;5000615;28;20191;-79
2023/04/14 05:14:20;;;;;;;14.70;9.07;;;2.60;99.90;;;;;;5000659;28;20641;-79
2023/04/14 05:16:46;;;;;;;11.60;8.37;;;2.70;99.90;;;;;;5001703;28;20215;-82
2023/04/14 05:19:12;;;;;;;9.47;8.23;;;2.70;99.90;;;;;;5020457;28;20203;-82
2023/04/14 05:21:38;;;;;;;12.83;9.10;;;2.70;99.90;;;;;;5020495;28;20183;-82
2023/04/14 05:24:04;;;;;;;16.60;8.33;;;2.70;99.90;;;;;;5003041;28;20203;-82
2023/04/14 05:26:30;;;;;;;13.43;8.23;;;2.80;99.90;;;;;;5021439;28;20225;-82
2023/04/14 05:28:55;;;;;;;12.37;8.70;;;2.90;99.90;;;;;;5003030;28;20290;-82
2023/04/14 05:31:21;;;;;;;13.57;9.90;;;2.80;99.90;;;;;;5001355;28;20659;-83
2023/04/14 05:33:47;;;;;;;13.33;10.00;;;2.80;99.90;;;;;;5001178;28;20210;-83
2023/04/14 05:36:13;;;;;;;14.80;10.37;;;2.90;99.90;;;;;;5000802;28;20546;-83
2023/04/14 05:38:39;;;;;;;16.00;10.20;;;2.90;99.90;;;;;;5000451;28;20215;-83
2023/04/14 05:41:06;;;;;;;14.90;10.73;;;3.10;99.90;;;;;;5018301;28;20644;-83
2023/04/14 05:43:31;;;;;;;13.93;9.47;;;3.10;99.90;;;;;;5000293;28;20203;-79
2023/04/14 05:45:57;;;;;;;14.57;10.03;;;3.20;99.90;;;;;;5017618;28;20234;-79
2023/04/14 05:48:26;;;;;;;11.47;9.07;;;3.30;99.90;;;;;;5000935;28;20627;-79
2023/04/14 05:50:52;;;;;;;10.57;9.27;;;3.40;99.90;;;;;;5001407;28;20274;-79
2023/04/14 05:53:17;;;;;;;12.17;9.37;;;3.40;99.90;;;;;;5018935;28;20584;-79
2023/04/14 05:55:44;;;;;;;13.67;9.27;;;3.50;99.90;;;;;;5000371;28;20191;-79
2023/04/14 05:58:11;;;;;;;16.77;9.10;;;3.70;99.90;;;;;;5017697;28;20214;-79
2023/04/14 06:00:37;;;;;;;13.93;9.53;;;3.70;99.90;;;;;;5017717;28;20641;-79
2023/04/14 06:03:02;;;;;;;17.87;9.40;;;3.70;99.90;;;;;;5000248;28;20187;-79
2023/04/14 06:05:28;;;;;;;11.27;9.57;;;3.80;99.90;;;;;;5019993;28;20254;-79
2023/04/14 06:07:54;;;;;;;15.00;10.07;;;3.90;99.90;;;;;;5017819;28;20176;-79
2023/04/14 06:10:20;;;;;;;19.50;9.10;;;4.00;99.90;;;;;;5017745;28;20203;-79
2023/04/14 06:12:46;;;;;;;13.40;9.03;;;4.10;99.90;;;;;;5017987;28;20191;-79
2023/04/14 06:15:11;;;;;;;16.60;8.53;;;4.20;99.90;;;;;;4999938;28;20234;-79
2023/04/14 06:17:38;;;;;;;14.30;8.77;;;4.40;99.90;;;;;;5017521;28;20204;-79
2023/04/14 06:20:05;;;;;;;12.63;8.80;;;4.50;99.90;;;;;;5016961;28;20176;-79
2023/04/14 06:22:31;;;;;;;12.63;8.60;;;4.50;99.90;;;;;;5017087;28;20179;-79
2023/04/14 06:24:57;;;;;;;10.83;8.70;;;4.60;99.90;;;;;;5017097;28;20196;-79
2023/04/14 06:27:24;;;;;;;12.23;8.93;;;4.70;99.90;;;;;;5017462;28;20636;-79
2023/04/14 06:29:50;;;;;;;17.63;8.93;;;4.90;99.90;;;;;;5017235;28;20271;-79
2023/04/14 06:32:19;;;;;;;11.43;8.63;;;5.00;99.90;;;;;;5018607;28;20175;-79
2023/04/14 06:34:49;;;;;;;12.80;8.03;;;5.20;99.90;;;;;;5004587;28;20204;-79
2023/04/14 06:37:15;;;;;;;14.90;8.73;;;5.40;99.90;;;;;;5021969;28;20263;-79
2023/04/14 06:39:41;;;;;;;14.03;9.33;;;5.40;99.90;;;;;;5020428;28;20690;-79
2023/04/14 06:42:07;;;;;;;13.77;8.37;;;5.60;99.90;;;;;;5020533;28;20183;-79
2023/04/14 06:44:32;;;;;;;13.40;8.50;;;5.70;99.90;;;;;;5019728;28;20565;-79
2023/04/14 06:46:58;;;;;;;13.87;8.30;;;5.80;99.90;;;;;;5020508;28;20785;-79
2023/04/14 06:49:24;;;;;;;13.43;8.40;;;5.90;99.90;;;;;;5020027;28;20194;-79
2023/04/14 06:51:49;;;;;;;16.40;9.10;;;6.10;99.90;;;;;;5001755;28;20188;-79
2023/04/14 06:54:15;;;;;;;19.30;8.73;;;6.10;99.90;;;;;;5001570;28;20266;-79
2023/04/14 06:56:41;;;;;;;11.97;8.90;;;6.20;99.90;;;;;;5019818;28;20203;-79
2023/04/14 06:59:07;;;;;;;14.37;9.23;;;6.30;99.90;;;;;;5001500;28;20211;-80
2023/04/14 07:01:33;;;;;;;14.73;8.13;;;6.50;99.90;;;;;;5001491;28;20207;-80
2023/04/14 07:03:58;;;;;;;11.93;8.13;;;6.60;99.90;;;;;;5000917;28;20195;-79
2023/04/14 07:06:25;;;;;;;14.53;7.60;;;6.60;99.90;;;;;;5019393;28;20212;-79
2023/04/14 07:08:51;;;;;;;12.37;7.63;;;6.80;99.90;;;;;;5019157;28;20180;-80
2023/04/14 07:11:16;;;;;;;10.97;7.30;;;6.90;99.90;;;;;;4999331;28;20240;-80
2023/04/14 07:13:42;;;;;;;12.07;7.63;;;7.00;99.90;;;;;;5016540;28;20277;-80
2023/04/14 07:16:08;;;;;;;11.43;8.47;;;7.10;99.90;;;;;;5016203;28;20199;-79
2023/04/14 07:18:34;;;;;;;14.13;7.40;;;7.20;99.90;;;;;;4999548;28;20237;-79
2023/04/14 07:21:01;;;;;;;9.87;6.73;;;7.40;99.90;;;;;;5016160;28;20163;-79
2023/04/14 07:23:27;;;;;;;9.27;7.20;;;7.50;99.90;;;;;;4998223;28;20202;-78
2023/04/14 07:25:54;;;;;;;11.20;7.53;;;7.70;99.90;;;;;;5015800;28;20168;-78
2023/04/14 07:28:21;;;;;;;9.70;7.13;;;7.80;99.90;;;;;;5015465;28;20180;-78
2023/04/14 07:30:48;;;;;;;13.10;6.87;;;8.00;99.90;;;;;;4997809;28;20186;-78
2023/04/14 07:33:17;;;;;;;10.30;6.60;;;8.10;99.90;;;;;;5015531;28;20182;-78
2023/04/14 07:35:44;;;;;;;10.37;7.27;;;8.20;99.90;;;;;;4998299;28;20667;-79
2023/04/14 07:38:10;;;;;;;10.20;6.27;;;8.30;99.90;;;;;;5015700;28;20206;-80
2023/04/14 07:40:35;;;;;;;11.93;6.97;;;8.30;99.90;;;;;;4998086;28;20172;-80
2023/04/14 07:43:01;;;;;;;12.23;7.50;;;8.30;99.90;;;;;;4999434;28;20199;-79
2023/04/14 07:45:27;;;;;;;11.00;6.90;;;8.30;99.90;;;;;;5016680;28;20211;-79
2023/04/14 07:47:53;;;;;;;10.70;6.73;;;8.40;99.90;;;;;;5017469;28;20261;-79
2023/04/14 07:50:19;;;;;;;15.50;7.27;;;8.50;99.90;;;;;;4999180;28;20184;-79
2023/04/14 07:52:45;;;;;;;15.27;7.70;;;8.60;99.90;;;;;;5017676;28;20190;-79
2023/04/14 07:55:11;;;;;;;9.50;6.37;;;8.80;99.90;;;;;;4999783;28;20200;-79
2023/04/14 07:57:36;;;;;;;7.47;6.43;;;9.10;99.90;;;;;;5018311;28;20257;-79
2023/04/14 08:00:03;;;;;;;9.57;6.10;;;9.20;99.90;;;;;;5017851;28;20183;-79
2023/04/14 08:02:33;;;;;;;16.07;6.13;;;9.40;99.90;;;;;;5000573;28;20674;-83
2023/04/14 08:04:59;;;;;;;8.07;5.53;;;9.50;99.90;;;;;;5017049;28;20199;-84
2023/04/14 08:07:27;;;;;;;9.90;5.87;;;9.50;99.90;;;;;;4999089;28;20175;-80
2023/04/14 08:09:53;;;;;;;8.83;6.00;;;9.60;99.90;;;;;;5016926;28;20179;-82
2023/04/14 08:12:19;;;;;;;15.03;6.20;;;9.70;99.90;;;;;;5016928;28;20205;-83
2023/04/14 08:14:46;;;;;;;9.70;5.63;;;9.80;99.90;;;;;;5015571;28;20294;-84
2023/04/14 08:17:12;;;;;;;8.37;5.13;;;10.00;99.90;;;;;;5016346;28;20153;-84
2023/04/14 08:19:39;;;;;;;14.32;5.70;;;10.20;99.90;;;;;;4997917;28;20183;-83
2023/04/14 08:22:05;;;;;;;12.37;5.97;;;10.30;99.90;;;;;;4997875;28;20176;-82
2023/04/14 08:24:30;;;;;;;11.27;5.35;;;10.90;99.90;;;;;;5015485;28;20203;-82
2023/04/14 08:26:57;;;;;;;8.30;4.70;;;12.20;99.90;;;;;;4998626;28;20523;-84
2023/04/14 08:29:22;;;;;;;9.85;4.95;;;13.80;99.90;;;;;;5016103;28;20168;-84
2023/04/14 08:31:48;;;;;;;9.85;4.93;;;15.20;99.90;;;;;;5015312;28;20593;-84
2023/04/14 08:34:14;;;;;;;6.57;4.22;;;16.60;99.90;;;;;;5014921;28;20210;-83
2023/04/14 08:36:40;;;;;;;10.95;4.45;;;17.30;99.90;;;;;;4997690;28;20204;-84
2023/04/14 08:39:06;;;;;;;9.98;4.30;;;17.40;99.90;;;;;;4997760;28;20235;-83
2023/04/14 08:41:37;;;;;;;7.30;4.20;;;17.20;99.90;;;;;;4998302;28;20179;-85
2023/04/14 08:44:04;;;;;;;9.07;4.53;;;17.70;99.90;;;;;;5015577;28;20199;-83
2023/04/14 08:46:30;;;;;;;7.05;4.50;;;18.20;99.90;;;;;;5015417;28;20698;-80
2023/04/14 08:49:06;;;;;;;10.73;3.83;;;18.80;99.90;;;;;;5017182;28;20225;-82
2023/04/14 08:51:37;;;;;;;9.02;3.45;;;18.80;99.90;;;;;;4998140;28;20564;-85
2023/04/14 08:54:09;;;;;;;7.82;4.10;;;19.10;99.90;;;;;;5014955;28;20368;-85
2023/04/14 08:56:41;;;;;;;7.85;3.33;;;19.20;99.90;;;;;;4999005;28;20590;-85
2023/04/14 08:59:09;;;;;;;8.90;3.65;;;19.70;99.90;;;;;;5015545;28;20199;-85
2023/04/14 09:01:36;;;;;;;8.75;3.47;;;20.10;99.90;;;;;;5015890;28;20247;-85
2023/04/14 09:04:03;;;;;;;8.43;3.33;;;20.00;99.90;;;;;;4999039;28;20202;-85
2023/04/14 09:06:33;;;;;;;5.28;3.10;;;20.00;99.90;;;;;;5015426;28;20617;-82
2023/04/14 09:09:05;;;;;;;9.63;3.03;;;19.80;99.90;;;;;;5014913;28;20262;-84
2023/04/14 09:11:31;;;;;;;9.27;3.50;;;19.90;99.90;;;;;;5014866;28;20264;-84
2023/04/14 09:14:00;;;;;;;8.48;3.13;;;20.10;99.90;;;;;;4996666;28;20251;-80
2023/04/14 09:16:27;;;;;;;4.63;3.10;;;20.70;99.90;;;;;;5014715;28;20259;-80
2023/04/14 09:18:54;;;;;;;9.25;3.47;;;21.20;99.90;;;;;;5014466;28;20711;-80
2023/04/14 09:21:20;;;;;;;10.52;3.80;;;21.30;99.90;;;;;;5014562;28;20172;-80
2023/04/14 09:23:46;;;;;;;7.68;3.20;;;20.90;99.40;;;;;;5014895;28;20234;-80
2023/04/14 09:26:12;;;;;;;9.75;3.70;;;20.90;99.90;;;;;;4996672;28;20187;-80
2023/04/14 09:28:40;;;;;;;8.48;3.90;;;21.40;99.90;;;;;;5014783;28;20176;-80
2023/04/14 09:31:07;;;;;;;10.68;3.72;;;21.70;99.90;;;;;;5014764;28;20514;-80
2023/04/14 09:33:44;;;;;;;9.55;3.95;;;21.60;99.50;;;;;;5014541;28;20195;-80
2023/04/14 09:36:26;;;;;;;5.53;3.28;;;21.80;99.10;;;;;;5014698;28;20198;-80
2023/04/14 09:38:52;;;;;;;12.57;3.80;;;21.80;99.20;;;;;;5014657;28;20206;-80
2023/04/14 09:41:21;;;;;;;9.88;3.85;;;21.80;97.40;;;;;;4996578;28;20264;-80
2023/04/14 09:43:47;;;;;;;9.80;3.67;;;20.90;95.00;;;;;;4996799;28;20195;-80
2023/04/14 09:46:14;;;;;;;6.93;3.63;;;20.30;98.50;;;;;;5014431;28;20223;-80
2023/04/14 09:48:52;;;;;;;8.90;3.25;;;20.30;98.00;;;;;;5014792;28;20645;-80
2023/04/14 09:51:37;;;;;;;9.73;3.38;;;20.10;97.80;;;;;;5014427;28;20171;-80
2023/04/14 09:54:05;;;;;;;7.68;3.25;;;20.00;97.40;;;;;;5014228;28;20199;-80
2023/04/14 09:56:31;;;;;;;7.13;3.30;;;19.90;97.00;;;;;;5017964;28;20187;-80
2023/04/14 09:59:01;;;;;;;9.32;3.55;;;19.80;96.70;;;;;;5018011;28;20578;-80
2023/04/14 10:01:32;;;;;;;6.00;3.38;;;19.80;97.70;;;;;;5018015;28;20254;-83
2023/04/14 10:04:00;;;;;;;6.15;3.17;;;19.40;95.10;;;;;;5020627;28;20199;-83
2023/04/14 10:06:26;;;;;;;9.40;3.20;;;19.20;96.80;;;;;;5024783;28;20168;-83
2023/04/14 10:08:54;;;;;;;6.93;3.55;;;19.00;97.80;;;;;;5006943;28;20186;-84
2023/04/14 10:11:22;;;;;;;7.13;3.20;;;18.20;97.20;;;;;;5022924;28;20222;-84
2023/04/14 10:13:49;;;;;;;5.65;3.38;;;18.00;99.90;;;;;;5021763;28;20278;-83
2023/04/14 10:16:14;;;;;;;10.60;4.22;;;17.80;99.40;;;;;;5002503;28;20176;-83
2023/04/14 10:18:41;;;;;;;9.88;3.97;;;17.90;99.80;;;;;;5002576;28;20299;-81
2023/04/14 10:21:08;;;;;;;6.82;3.63;;;17.80;99.90;;;;;;5002568;28;20582;-80
2023/04/14 10:23:40;;;;;;;8.43;3.70;;;17.80;99.80;;;;;;5018581;28;20196;-79
2023/04/14 10:26:11;;;;;;;8.00;3.70;;;17.50;99.90;;;;;;5017783;28;20585;-79
2023/04/14 10:28:42;;;;;;;8.25;3.83;;;17.30;99.90;;;;;;5017796;28;20166;-79
2023/04/14 10:31:14;;;;;;;9.18;3.88;;;17.10;99.90;;;;;;5016803;28;20160;-77
2023/04/14 10:33:41;;;;;;;9.52;3.85;;;16.70;98.70;;;;;;5016361;28;20199;-77
2023/04/14 10:36:08;;;;;;;7.25;3.83;;;16.70;99.90;;;;;;5004454;28;20261;-83
2023/04/14 10:38:42;;;;;;;11.40;4.18;;;16.90;99.90;;;;;;5003828;28;20683;-82
2023/04/14 10:41:09;;;;;;;7.53;3.70;;;17.00;99.90;;;;;;5008935;28;20214;-83
2023/04/14 10:43:36;;;;;;;6.55;4.00;;;17.20;99.90;;;;;;4998919;28;20282;-78
2023/04/14 10:46:03;;;;;;;7.47;3.80;;;16.80;99.90;;;;;;4998935;28;20175;-78
2023/04/14 10:48:34;;;;;;;8.80;3.55;;;16.90;99.90;;;;;;4999023;28;20184;-78
2023/04/14 10:51:08;;;;;;;10.18;4.05;;;16.80;99.90;;;;;;5016611;28;20176;-78
2023/04/14 10:53:54;;;;;;;9.55;3.80;;;16.50;99.90;;;;;;4998767;28;20200;-78
2023/04/14 10:56:24;;;;;;;12.35;4.57;;;16.40;99.90;;;;;;5016430;28;20160;-78
2023/04/14 10:58:57;;;;;;;9.82;3.78;;;16.10;99.90;;;;;;5016256;28;20306;-78
2023/04/14 11:01:31;;;;;;;7.00;3.85;;;15.70;99.90;;;;;;4999031;28;20183;-78
2023/04/14 11:04:20;;;;;;;7.22;3.72;;;15.50;99.90;;;;;;5016373;28;20194;-78
2023/04/14 11:06:46;;;;;;;7.60;4.10;;;16.10;99.90;;;;;;4998267;28;20176;-78
2023/04/14 11:09:30;;;;;;;4.93;3.60;;;16.40;99.90;;;;;;5016721;28;20251;-78
2023/04/14 11:12:20;;;;;;;7.30;3.45;;;16.50;99.90;;;;;;4998596;28;20187;-78
2023/04/14 11:14:46;;;;;;;6.90;3.45;;;16.30;99.90;;;;;;5015683;28;20220;-78
2023/04/14 11:17:21;;;;;;;8.63;3.70;;;16.10;99.90;;;;;;5016142;28;20171;-78
2023/04/14 11:19:51;;;;;;;12.20;3.80;;;16.00;99.90;;;;;;5016134;28;20164;-78
2023/04/14 11:22:40;;;;;;;8.10;3.95;;;15.90;99.90;;;;;;5016129;28;20238;-78
2023/04/14 11:25:09;;;;;;;10.57;4.18;;;16.00;99.90;;;;;;5016006;28;20668;-78
2023/04/14 11:27:36;;;;;;;8.77;3.90;;;16.60;99.90;;;;;;5016346;28;20176;-78
2023/04/14 11:30:02;;;;;;;9.02;3.47;;;17.00;99.90;;;;;;5015748;28;20199;-78
2023/04/14 11:32:29;;;;;;;9.23;3.78;;;16.70;99.90;;;;;;4998084;28;20180;-78
2023/04/14 11:35:06;;;;;;;11.80;3.80;;;16.30;99.90;;;;;;5015799;28;20195;-78
2023/04/14 11:37:34;;;;;;;8.40;3.70;;;15.80;99.90;;;;;;4998404;28;20246;-78
2023/04/14 11:40:02;;;;;;;8.40;3.75;;;15.40;99.90;;;;;;5016142;28;20200;-78
2023/04/14 11:42:28;;;;;;;8.38;3.60;;;15.20;99.90;;;;;;5016108;28;20222;-78
2023/04/14 11:44:57;;;;;;;12.07;4.15;;;15.00;99.90;;;;;;4998205;28;20204;-78
2023/04/14 11:47:23;;;;;;;8.23;4.03;;;15.00;99.90;;;;;;5015739;28;20196;-78
2023/04/14 11:49:48;;;;;;;7.93;3.63;;;15.00;99.90;;;;;;5015497;28;20562;-78
2023/04/14 11:52:14;;;;;;;10.35;4.10;;;15.30;99.90;;;;;;4998204;28;20657;-78
2023/04/14 11:54:40;;;;;;;9.70;3.80;;;15.70;99.90;;;;;;5015396;28;20198;-78
2023/04/14 11:57:10;;;;;;;10.40;4.15;;;16.20;99.90;;;;;;4997918;28;20180;-78
2023/04/14 11:59:42;;;;;;;8.18;3.90;;;17.00;99.90;;;;;;5015292;28;20741;-78
2023/04/14 12:02:21;;;;;;;9.93;3.92;;;17.70;99.90;;;;;;4997848;28;20180;-78
2023/04/14 12:04:50;;;;;;;9.63;4.28;;;18.20;99.90;;;;;;5015386;28;20218;-79
2023/04/14 12:07:17;;;;;;;8.90;4.40;;;18.50;99.90;;;;;;4997751;28;20176;-79
2023/04/14 12:09:48;;;;;;;9.95;4.40;;;18.20;99.90;;;;;;4997579;28;20184;-78
2023/04/14 12:12:15;;;;;;;7.63;4.25;;;17.60;99.90;;;;;;4997644;28;20194;-78
2023/04/14 12:14:47;;;;;;;9.85;4.53;;;17.20;99.90;;;;;;4997488;28;20576;-78
2023/04/14 12:17:17;;;;;;;10.07;4.18;;;17.00;99.90;;;;;;5014387;28;20180;-78
2023/04/14 12:19:44;;;;;;;7.18;3.83;;;16.70;99.90;;;;;;4997256;28;20256;-78
2023/04/14 12:22:10;;;;;;;9.00;4.15;;;16.40;99.90;;;;;;5014887;28;20199;-78
2023/04/14 12:24:38;;;;;;;9.45;4.20;;;16.20;99.90;;;;;;5014944;28;20192;-78
2023/04/14 12:27:05;;;;;;;8.80;3.90;;;16.00;99.90;;;;;;4997369;28;20261;-78
2023/04/14 12:29:38;;;;;;;9.38;4.05;;;15.70;99.90;;;;;;4997102;28;20176;-78
2023/04/14 12:32:11;;;;;;;7.93;4.00;;;15.40;99.90;;;;;;4997607;28;20194;-78
2023/04/14 12:34:37;;;;;;;6.80;3.47;;;15.20;99.90;;;;;;5015200;28;20206;-78
2023/04/14 12:37:10;;;;;;;10.32;3.85;;;15.10;99.90;;;;;;4997497;28;20184;-78
2023/04/14 12:39:51;;;;;;;9.20;4.15;;;15.20;99.90;;;;;;4997942;28;20204;-78
2023/04/14 12:42:17;;;;;;;6.45;3.72;;;15.30;99.90;;;;;;4998571;28;20203;-78
2023/04/14 12:45:00;;;;;;;8.57;4.22;;;15.40;99.90;;;;;;5015015;28;20196;-78
2023/04/14 12:47:28;;;;;;;5.65;3.67;;;16.00;99.90;;;;;;4997276;28;20175;-78
2023/04/14 12:49:54;;;;;;;10.38;4.30;;;16.40;99.90;;;;;;5015202;28;20595;-78
2023/04/14 12:52:37;;;;;;;8.02;4.05;;;16.80;99.90;;;;;;4996839;28;20186;-78
2023/04/14 12:55:06;;;;;;;10.10;4.00;;;16.90;99.90;;;;;;4996704;28;20593;-78